Time;durP1;ratioP1;P1;durP2;ratioP2;P2;SDS_P1;SDS_P2;PMS_P1;PMS_P2;Temp;Humidity;BMP_temperature;BMP_pressure;BME280_temperature;BME280_humidity;BME280_pressure;Samples;Min_cycle;Max_cycle;Signal;HPM_P1;HPM_P2
2022/08/27 00:01:32;;;;;;;7.82;3.80;;;;;;;;;;10454383;28;20045;-74
2022/08/27 00:06:32;;;;;;;10.00;4.03;;;;;;;;;;10452714;28;20021;-74
2022/08/27 00:11:33;;;;;;;8.75;3.80;;;;;;;;;;10452469;28;20035;-74
2022/08/27 00:16:33;;;;;;;14.18;3.38;;;;;;;;;;10435281;28;20051;-73
2022/08/27 00:21:34;;;;;;;9.13;3.67;;;;;;;;;;10452209;28;20036;-79
2022/08/27 00:26:34;;;;;;;8.77;3.47;;;;;;;;;;10453623;28;20040;-73
2022/08/27 00:31:34;;;;;;;11.35;3.65;;;;;;;;;;10435865;28;20056;-76
2022/08/27 00:36:34;;;;;;;8.97;3.80;;;;;;;;;;10452400;28;20040;-76
2022/08/27 00:41:35;;;;;;;11.93;3.03;;;;;;;;;;10451701;28;20033;-77
2022/08/27 00:46:41;;;;;;;12.27;3.33;;;;;;;;;;10451496;28;20041;-80
2022/08/27 00:51:43;;;;;;;13.50;3.20;;;;;;;;;;10451526;28;20035;-80
2022/08/27 00:56:43;;;;;;;8.88;3.45;;;;;;;;;;10451241;28;20491;-77
2022/08/27 01:07:04;;;;;;;12.05;3.38;;;;;;;;;;10451814;28;20037;-76
2022/08/27 01:12:04;;;;;;;10.50;4.80;;;;;;;;;;10450734;28;20029;-78
2022/08/27 01:17:06;;;;;;;11.97;3.70;;;;;;;;;;10451387;28;20267;-76
2022/08/27 01:22:06;;;;;;;8.48;2.90;;;;;;;;;;10451623;28;20291;-79
2022/08/27 01:27:09;;;;;;;11.68;3.22;;;;;;;;;;10449077;28;20028;-72
2022/08/27 01:32:11;;;;;;;9.55;3.25;;;;;;;;;;10433030;28;20023;-75
2022/08/27 01:37:12;;;;;;;8.85;3.85;;;;;;;;;;10450892;28;20025;-76
2022/08/27 01:42:15;;;;;;;10.57;3.03;;;;;;;;;;10452242;28;20019;-75
2022/08/27 01:47:16;;;;;;;11.35;3.47;;;;;;;;;;10451045;28;20116;-79
2022/08/27 01:52:19;;;;;;;10.15;3.85;;;;;;;;;;10449025;28;20037;-77
2022/08/27 01:57:19;;;;;;;26.30;6.90;;;;;;;;;;10448654;28;20036;-77
2022/08/27 02:02:19;;;;;;;10.73;3.65;;;;;;;;;;10448331;28;20028;-78
2022/08/27 02:07:20;;;;;;;8.75;4.20;;;;;;;;;;10448885;28;20483;-78
2022/08/27 02:12:20;;;;;;;6.03;3.40;;;;;;;;;;10448281;28;20506;-76
2022/08/27 02:17:20;;;;;;;16.67;4.28;;;;;;;;;;10449075;28;20462;-72
2022/08/27 02:22:21;;;;;;;8.60;3.53;;;;;;;;;;10448035;28;20075;-73
2022/08/27 02:27:21;;;;;;;10.27;4.07;;;;;;;;;;10447556;28;20482;-73
2022/08/27 02:32:21;;;;;;;11.50;4.03;;;;;;;;;;10447445;28;20021;-80
2022/08/27 02:37:22;;;;;;;8.87;4.17;;;;;;;;;;10447459;28;20023;-74
2022/08/27 02:42:22;;;;;;;12.40;4.55;;;;;;;;;;10447223;28;20128;-73
2022/08/27 02:47:22;;;;;;;15.93;4.57;;;;;;;;;;10447400;28;20025;-75
2022/08/27 02:52:25;;;;;;;14.93;5.10;;;;;;;;;;10447542;28;20119;-74
2022/08/27 02:57:25;;;;;;;8.25;4.50;;;;;;;;;;10447107;28;20025;-75
2022/08/27 03:02:25;;;;;;;11.38;4.82;;;;;;;;;;10447131;28;20016;-75
2022/08/27 03:07:26;;;;;;;10.38;4.47;;;;;;;;;;10446731;28;20028;-76
2022/08/27 03:12:26;;;;;;;15.73;5.27;;;;;;;;;;10446645;28;20017;-72
2022/08/27 03:22:45;;;;;;;13.38;5.60;;;;;;;;;;10448109;28;20559;-73
2022/08/27 03:27:46;;;;;;;13.40;5.55;;;;;;;;;;10446707;28;20197;-76
2022/08/27 03:32:46;;;;;;;18.07;4.93;;;;;;;;;;10446077;28;20086;-73
2022/08/27 03:37:46;;;;;;;12.88;4.80;;;;;;;;;;10447673;28;20310;-75
2022/08/27 03:42:46;;;;;;;7.97;3.93;;;;;;;;;;10446319;28;20475;-76
2022/08/27 03:47:47;;;;;;;12.48;4.40;;;;;;;;;;10446191;28;20259;-75
2022/08/27 03:52:47;;;;;;;11.65;4.57;;;;;;;;;;10451745;28;20032;-73
2022/08/27 03:57:48;;;;;;;15.13;4.60;;;;;;;;;;10452892;28;20017;-77
2022/08/27 04:02:48;;;;;;;13.73;5.28;;;;;;;;;;10453533;28;20025;-76
2022/08/27 04:07:48;;;;;;;9.20;4.03;;;;;;;;;;10453026;28;20482;-75
2022/08/27 04:12:48;;;;;;;13.13;5.27;;;;;;;;;;10452654;28;20025;-76
2022/08/27 04:17:49;;;;;;;9.82;3.42;;;;;;;;;;10452527;28;20045;-75
2022/08/27 04:22:49;;;;;;;7.57;3.60;;;;;;;;;;10452307;28;20118;-76
2022/08/27 04:27:49;;;;;;;9.30;4.50;;;;;;;;;;10452014;28;20132;-75
2022/08/27 04:32:50;;;;;;;11.10;4.15;;;;;;;;;;10453455;28;20028;-73
2022/08/27 04:37:50;;;;;;;6.82;3.90;;;;;;;;;;10451926;28;20159;-76
2022/08/27 04:42:51;;;;;;;7.32;4.03;;;;;;;;;;10451527;28;20036;-76
2022/08/27 04:47:51;;;;;;;15.65;5.20;;;;;;;;;;10451224;28;20112;-75
2022/08/27 04:52:51;;;;;;;14.98;4.68;;;;;;;;;;10451035;28;20025;-73
2022/08/27 04:57:51;;;;;;;10.25;4.70;;;;;;;;;;10450872;28;20020;-74
2022/08/27 05:02:52;;;;;;;12.73;4.47;;;;;;;;;;10450633;28;20379;-73
2022/08/27 05:07:52;;;;;;;20.30;6.05;;;;;;;;;;10450426;28;20035;-75
2022/08/27 05:12:52;;;;;;;16.42;5.32;;;;;;;;;;10449879;28;20025;-72
2022/08/27 05:17:53;;;;;;;11.00;4.95;;;;;;;;;;10450875;28;20057;-77
2022/08/27 05:22:53;;;;;;;9.13;4.97;;;;;;;;;;10450670;28;20458;-76
2022/08/27 05:27:53;;;;;;;8.35;3.95;;;;;;;;;;10449755;28;20028;-73
2022/08/27 05:32:54;;;;;;;11.75;4.13;;;;;;;;;;10450965;28;20025;-77
2022/08/27 05:37:54;;;;;;;10.25;4.28;;;;;;;;;;10449049;28;20021;-76
2022/08/27 05:42:54;;;;;;;22.65;5.65;;;;;;;;;;10448835;28;20467;-76
2022/08/27 05:47:54;;;;;;;16.65;4.05;;;;;;;;;;10448848;28;20481;-76
2022/08/27 05:52:54;;;;;;;8.68;4.68;;;;;;;;;;10448861;28;20486;-73
2022/08/27 05:57:55;;;;;;;17.52;4.65;;;;;;;;;;10448461;28;20558;-74
2022/08/27 06:02:55;;;;;;;6.82;4.03;;;;;;;;;;10448556;28;20029;-76
2022/08/27 06:07:55;;;;;;;14.73;4.05;;;;;;;;;;10448972;28;20033;-79
2022/08/27 06:12:55;;;;;;;8.43;4.00;;;;;;;;;;10448869;28;20021;-76
2022/08/27 06:17:56;;;;;;;11.20;3.60;;;;;;;;;;10447886;28;20179;-76
2022/08/27 06:22:56;;;;;;;13.80;4.40;;;;;;;;;;10447851;28;20491;-73
2022/08/27 06:27:57;;;;;;;6.82;3.65;;;;;;;;;;10447590;28;20012;-74
2022/08/27 06:32:57;;;;;;;20.25;4.43;;;;;;;;;;10449072;28;20032;-77
2022/08/27 06:37:58;;;;;;;15.13;3.63;;;;;;;;;;10447340;28;20463;-74
2022/08/27 06:42:59;;;;;;;17.83;3.65;;;;;;;;;;10447065;28;20489;-77
2022/08/27 06:47:59;;;;;;;13.40;3.58;;;;;;;;;;10447983;28;20461;-77
2022/08/27 06:52:59;;;;;;;13.68;3.70;;;;;;;;;;10448455;28;20031;-73
2022/08/27 06:57:59;;;;;;;14.35;5.07;;;;;;;;;;10446999;28;20048;-73
2022/08/27 07:03:00;;;;;;;13.85;3.33;;;;;;;;;;10446672;28;20028;-76
2022/08/27 07:08:01;;;;;;;11.48;3.63;;;;;;;;;;10447187;28;20017;-73
2022/08/27 07:13:01;;;;;;;13.80;3.45;;;;;;;;;;10446510;28;20446;-74
2022/08/27 07:18:01;;;;;;;5.28;2.83;;;;;;;;;;10448306;28;20503;-76
2022/08/27 07:23:02;;;;;;;12.13;3.50;;;;;;;;;;10447753;28;20071;-72
2022/08/27 07:28:02;;;;;;;17.65;3.40;;;;;;;;;;10451161;28;20017;-73
2022/08/27 07:33:03;;;;;;;13.63;2.97;;;;;;;;;;10454034;28;20025;-73
2022/08/27 07:38:03;;;;;;;15.70;3.20;;;;;;;;;;10454297;28;20025;-76
2022/08/27 07:48:26;;;;;;;9.90;2.72;;;;;;;;;;10455195;28;20025;-80
2022/08/27 07:53:27;;;;;;;10.35;3.17;;;;;;;;;;10453555;28;20017;-79
2022/08/27 07:58:27;;;;;;;12.05;3.28;;;;;;;;;;10453580;28;20066;-80
2022/08/27 08:03:27;;;;;;;12.27;3.30;;;;;;;;;;10453748;28;20104;-75
2022/08/27 08:08:27;;;;;;;17.20;3.40;;;;;;;;;;10436322;28;20406;-76
2022/08/27 08:13:28;;;;;;;10.68;2.97;;;;;;;;;;10453932;28;20033;-77
2022/08/27 08:18:28;;;;;;;11.88;4.47;;;;;;;;;;10452201;28;20183;-73
2022/08/27 08:23:29;;;;;;;14.35;3.17;;;;;;;;;;10452263;28;20427;-72
2022/08/27 08:28:29;;;;;;;12.80;3.10;;;;;;;;;;10453119;28;20051;-73
2022/08/27 08:33:30;;;;;;;14.20;2.88;;;;;;;;;;10452212;28;20430;-77
2022/08/27 08:38:30;;;;;;;6.68;2.50;;;;;;;;;;10451920;28;20021;-77
2022/08/27 08:43:38;;;;;;;16.25;2.97;;;;;;;;;;10453000;28;20025;-74
2022/08/27 08:48:42;;;;;;;12.48;2.60;;;;;;;;;;10450995;28;20032;-73
2022/08/27 08:53:46;;;;;;;20.65;3.30;;;;;;;;;;10451197;28;20017;-75
2022/08/27 08:58:48;;;;;;;12.73;2.88;;;;;;;;;;10450792;28;20032;-73
2022/08/27 09:03:53;;;;;;;16.33;2.65;;;;;;;;;;10450647;28;20031;-73
2022/08/27 09:08:54;;;;;;;14.70;2.80;;;;;;;;;;10449747;28;20475;-73
2022/08/27 09:13:58;;;;;;;15.52;2.97;;;;;;;;;;10450084;28;20029;-73
2022/08/27 09:19:01;;;;;;;10.88;2.63;;;;;;;;;;10449809;28;20521;-75
2022/08/27 09:24:04;;;;;;;12.80;3.13;;;;;;;;;;10449480;28;20450;-73
2022/08/27 09:29:15;;;;;;;11.98;2.80;;;;;;;;;;10449621;28;20033;-80
2022/08/27 09:34:15;;;;;;;9.35;3.00;;;;;;;;;;10450799;28;20028;-74
2022/08/27 09:39:16;;;;;;;12.50;3.03;;;;;;;;;;10449242;28;20028;-74
2022/08/27 09:44:18;;;;;;;7.23;2.30;;;;;;;;;;10450238;28;20029;-80
2022/08/27 09:49:18;;;;;;;9.90;2.25;;;;;;;;;;10448394;28;20068;-72
2022/08/27 09:54:37;;;;;;;6.80;2.13;;;;;;;;;;10450066;28;20093;-76
2022/08/27 10:00:06;;;;;;;9.30;1.92;;;;;;;;;;10448627;28;20017;-76
2022/08/27 10:05:13;;;;;;;10.77;1.92;;;;;;;;;;10447560;28;20029;-77
2022/08/27 10:10:16;;;;;;;5.45;2.10;;;;;;;;;;10448955;28;20021;-76
2022/08/27 10:15:17;;;;;;;14.68;1.85;;;;;;;;;;10448129;28;20021;-77
2022/08/27 10:20:37;;;;;;;11.68;3.80;;;;;;;;;;10448093;28;20048;-79
2022/08/27 10:25:59;;;;;;;12.02;1.77;;;;;;;;;;10446937;28;20483;-73
2022/08/27 10:31:19;;;;;;;5.93;1.92;;;;;;;;;;10447924;28;20024;-76
2022/08/27 10:36:29;;;;;;;7.72;1.50;;;;;;;;;;10446859;28;20525;-73
2022/08/27 10:41:44;;;;;;;13.23;1.88;;;;;;;;;;10448345;28;20025;-73
2022/08/27 10:47:03;;;;;;;4.88;1.60;;;;;;;;;;10449521;28;20147;-75
2022/08/27 10:52:13;;;;;;;9.32;1.73;;;;;;;;;;10447378;28;20021;-75
2022/08/27 10:57:18;;;;;;;8.15;1.88;;;;;;;;;;10447532;28;20062;-73
2022/08/27 11:02:37;;;;;;;16.45;2.33;;;;;;;;;;10452502;28;20013;-78
2022/08/27 11:07:40;;;;;;;10.48;2.30;;;;;;;;;;10455133;28;20091;-77
2022/08/27 11:12:43;;;;;;;10.13;2.38;;;;;;;;;;10454983;28;20043;-73
2022/08/27 11:18:02;;;;;;;10.32;2.15;;;;;;;;;;10454594;28;20124;-73
2022/08/27 11:23:04;;;;;;;15.35;3.20;;;;;;;;;;10455237;28;20478;-74
2022/08/27 11:28:05;;;;;;;13.48;2.53;;;;;;;;;;10454505;28;20028;-74
2022/08/27 11:33:08;;;;;;;7.47;2.83;;;;;;;;;;10453988;28;20383;-78
2022/08/27 11:38:20;;;;;;;10.68;2.90;;;;;;;;;;10454256;28;20078;-74
2022/08/27 11:43:22;;;;;;;6.63;2.60;;;;;;;;;;10437114;28;20021;-73
2022/08/27 11:48:27;;;;;;;13.50;3.28;;;;;;;;;;10454848;28;20077;-77
2022/08/27 11:53:29;;;;;;;13.13;2.85;;;;;;;;;;10453214;28;20017;-80
2022/08/27 11:58:32;;;;;;;10.18;2.75;;;;;;;;;;10453419;28;20483;-72
2022/08/27 12:03:33;;;;;;;16.55;3.75;;;;;;;;;;10452786;28;20029;-74
2022/08/27 12:08:34;;;;;;;9.68;2.88;;;;;;;;;;10452752;28;20024;-73
2022/08/27 12:13:35;;;;;;;9.80;3.08;;;;;;;;;;10453549;28;20032;-76
2022/08/27 12:18:44;;;;;;;11.40;3.07;;;;;;;;;;10452285;28;20045;-73
2022/08/27 12:24:03;;;;;;;10.68;3.03;;;;;;;;;;10452468;28;20021;-75
2022/08/27 12:29:19;;;;;;;11.68;4.05;;;;;;;;;;10452643;28;20149;-76
2022/08/27 12:34:22;;;;;;;9.82;3.15;;;;;;;;;;10451945;28;20323;-73
2022/08/27 12:39:25;;;;;;;6.10;2.05;;;;;;;;;;10452086;28;20013;-74
2022/08/27 12:44:27;;;;;;;6.28;2.85;;;;;;;;;;10451898;28;20059;-77
2022/08/27 12:49:36;;;;;;;10.82;2.85;;;;;;;;;;10451196;28;20479;-73
2022/08/27 12:54:42;;;;;;;11.80;2.65;;;;;;;;;;10452578;28;20494;-77
2022/08/27 12:59:42;;;;;;;14.27;2.83;;;;;;;;;;10450627;28;20094;-73
2022/08/27 13:04:42;;;;;;;16.60;4.60;;;;;;;;;;10451048;28;20025;-77
2022/08/27 13:09:43;;;;;;;16.48;2.80;;;;;;;;;;10451989;28;20024;-77
2022/08/27 13:14:43;;;;;;;9.27;3.92;;;;;;;;;;10451683;28;20033;-75
2022/08/27 13:19:51;;;;;;;11.77;2.93;;;;;;;;;;10449804;28;20045;-74
2022/08/27 13:24:53;;;;;;;19.13;3.00;;;;;;;;;;10449250;28;20295;-77
2022/08/27 13:29:54;;;;;;;13.30;3.35;;;;;;;;;;10450023;28;20032;-78
2022/08/27 13:34:54;;;;;;;14.27;2.95;;;;;;;;;;10449106;28;20356;-72
2022/08/27 13:39:55;;;;;;;10.25;3.05;;;;;;;;;;10449414;28;20194;-74
2022/08/27 13:45:00;;;;;;;6.10;2.72;;;;;;;;;;10449506;28;20047;-75
2022/08/27 13:50:06;;;;;;;10.68;2.47;;;;;;;;;;10449062;28;20046;-75
2022/08/27 13:55:08;;;;;;;12.35;3.63;;;;;;;;;;10448609;28;20106;-74
2022/08/27 14:00:19;;;;;;;12.05;3.00;;;;;;;;;;10448132;28;20384;-74
2022/08/27 14:05:19;;;;;;;12.23;3.30;;;;;;;;;;10448536;28;20550;-79
2022/08/27 14:10:24;;;;;;;11.05;2.63;;;;;;;;;;10448276;28;20024;-76
2022/08/27 14:15:30;;;;;;;8.02;2.78;;;;;;;;;;10448167;28;20021;-80
2022/08/27 14:20:31;;;;;;;9.60;2.87;;;;;;;;;;10448150;28;20045;-78
2022/08/27 14:25:33;;;;;;;8.02;3.72;;;;;;;;;;10449184;28;20029;-73
2022/08/27 14:30:33;;;;;;;12.38;3.05;;;;;;;;;;10448427;28;20175;-75
2022/08/27 14:35:34;;;;;;;5.27;2.80;;;;;;;;;;10448585;28;20021;-79
2022/08/27 14:40:34;;;;;;;13.10;2.55;;;;;;;;;;10447310;28;20017;-76
2022/08/27 14:45:36;;;;;;;18.60;2.90;;;;;;;;;;10447433;28;20025;-75
2022/08/27 14:50:36;;;;;;;9.30;3.10;;;;;;;;;;10447271;28;20025;-76
2022/08/27 14:55:37;;;;;;;8.35;3.70;;;;;;;;;;10446823;28;20483;-76
2022/08/27 15:00:37;;;;;;;15.02;2.70;;;;;;;;;;10446893;28;20035;-74
2022/08/27 15:05:38;;;;;;;17.38;4.30;;;;;;;;;;10446523;28;20047;-73
2022/08/27 15:10:38;;;;;;;10.87;4.30;;;;;;;;;;10447476;28;20029;-74
2022/08/27 15:15:39;;;;;;;11.35;3.28;;;;;;;;;;10446833;28;20032;-73
2022/08/27 15:20:40;;;;;;;14.60;3.43;;;;;;;;;;10446051;28;20076;-73
2022/08/27 15:25:41;;;;;;;9.02;3.00;;;;;;;;;;10446636;28;20112;-80
2022/08/27 15:30:41;;;;;;;15.43;2.95;;;;;;;;;;10446447;28;20040;-76
2022/08/27 15:35:41;;;;;;;10.38;4.18;;;;;;;;;;10445808;28;20552;-72
2022/08/27 15:40:42;;;;;;;11.25;2.92;;;;;;;;;;10445921;28;20021;-75
2022/08/27 15:45:42;;;;;;;17.55;3.65;;;;;;;;;;10445893;28;20457;-75
2022/08/27 15:50:42;;;;;;;12.67;3.20;;;;;;;;;;10453391;28;20537;-72
2022/08/27 15:55:43;;;;;;;8.05;3.33;;;;;;;;;;10453114;28;20319;-76
2022/08/27 16:00:45;;;;;;;14.75;3.53;;;;;;;;;;10453041;28;20075;-73
2022/08/27 16:05:45;;;;;;;12.75;3.90;;;;;;;;;;10467493;28;20444;-73
2022/08/27 16:10:46;;;;;;;17.48;4.65;;;;;;;;;;10452647;28;20028;-72
2022/08/27 16:15:46;;;;;;;16.17;4.70;;;;;;;;;;10435986;28;20025;-76
2022/08/27 16:20:46;;;;;;;17.25;6.70;;;;;;;;;;10451985;28;20479;-76
2022/08/27 16:25:47;;;;;;;17.58;5.00;;;;;;;;;;10452287;28;20040;-72
2022/08/27 16:30:47;;;;;;;16.00;5.90;;;;;;;;;;10451873;28;20029;-73
2022/08/27 16:35:48;;;;;;;13.80;6.28;;;;;;;;;;10451733;28;20024;-73
2022/08/27 16:40:51;;;;;;;21.75;6.72;;;;;;;;;;10451029;28;20040;-73
2022/08/27 16:45:52;;;;;;;35.08;13.05;;;;;;;;;;10451053;28;20478;-72
2022/08/27 16:50:53;;;;;;;185.82;65.20;;;;;;;;;;10434551;28;20457;-72
2022/08/27 16:55:53;;;;;;;128.25;47.50;;;;;;;;;;10450680;28;20021;-74
2022/08/27 17:00:59;;;;;;;94.45;32.03;;;;;;;;;;10450833;28;20013;-74
2022/08/27 17:06:00;;;;;;;22.50;5.53;;;;;;;;;;10450247;28;20087;-74
2022/08/27 17:11:00;;;;;;;23.45;7.65;;;;;;;;;;10451770;28;20017;-75
2022/08/27 17:16:01;;;;;;;32.08;10.75;;;;;;;;;;10433453;28;20032;-79
2022/08/27 17:21:02;;;;;;;27.83;9.00;;;;;;;;;;10450796;28;20049;-74
2022/08/27 17:26:03;;;;;;;14.40;5.32;;;;;;;;;;10449211;28;20108;-73
2022/08/27 17:31:04;;;;;;;9.27;4.88;;;;;;;;;;10449862;28;20482;-75
2022/08/27 17:36:05;;;;;;;14.05;5.38;;;;;;;;;;10448984;28;20029;-73
2022/08/27 17:41:15;;;;;;;10.48;5.00;;;;;;;;;;10448906;28;20536;-72
2022/08/27 17:46:15;;;;;;;15.52;5.22;;;;;;;;;;10448773;28;20092;-72
2022/08/27 17:51:16;;;;;;;14.80;5.17;;;;;;;;;;10448552;28;20021;-74
2022/08/27 17:56:17;;;;;;;13.57;5.00;;;;;;;;;;10448410;28;20029;-75
2022/08/27 18:01:22;;;;;;;11.65;4.82;;;;;;;;;;10448352;28;20510;-76
2022/08/27 18:06:24;;;;;;;12.43;6.10;;;;;;;;;;10448830;28;20084;-72
2022/08/27 18:11:25;;;;;;;12.93;6.28;;;;;;;;;;10448650;28;20025;-75
2022/08/27 18:16:25;;;;;;;20.65;5.03;;;;;;;;;;10447741;28;20033;-75
2022/08/27 18:21:26;;;;;;;14.90;5.20;;;;;;;;;;10449266;28;20110;-76
2022/08/27 18:26:27;;;;;;;13.93;4.60;;;;;;;;;;10447799;28;20594;-76
2022/08/27 18:31:30;;;;;;;12.13;4.95;;;;;;;;;;10447746;28;20021;-73
2022/08/27 18:36:30;;;;;;;14.35;4.97;;;;;;;;;;10447323;28;20025;-80
2022/08/27 18:41:31;;;;;;;14.48;5.63;;;;;;;;;;10447403;28;20013;-73
2022/08/27 18:46:31;;;;;;;15.52;4.95;;;;;;;;;;10447143;28;20056;-75
2022/08/27 18:51:31;;;;;;;15.83;4.67;;;;;;;;;;10447357;28;20475;-73
2022/08/27 18:56:31;;;;;;;19.45;5.30;;;;;;;;;;10448466;28;20080;-75
2022/08/27 19:01:32;;;;;;;17.65;5.53;;;;;;;;;;10446862;28;20399;-73
2022/08/27 19:06:32;;;;;;;14.60;4.57;;;;;;;;;;10446762;28;20025;-73
2022/08/27 19:11:32;;;;;;;17.87;5.67;;;;;;;;;;10446872;28;20013;-73
2022/08/27 19:16:44;;;;;;;14.10;4.53;;;;;;;;;;10447603;28;20035;-74
2022/08/27 19:21:44;;;;;;;12.35;4.25;;;;;;;;;;10448220;28;20037;-73
2022/08/27 19:26:44;;;;;;;8.38;3.97;;;;;;;;;;10455722;28;20378;-73
2022/08/27 19:31:45;;;;;;;8.38;4.07;;;;;;;;;;10454650;28;20048;-73
2022/08/27 19:36:45;;;;;;;13.70;5.20;;;;;;;;;;10454356;28;20025;-73
2022/08/27 19:41:45;;;;;;;9.82;4.63;;;;;;;;;;10454051;28;20021;-73
2022/08/27 19:46:48;;;;;;;13.50;3.83;;;;;;;;;;10454231;28;20021;-75
2022/08/27 19:51:48;;;;;;;15.15;4.25;;;;;;;;;;10453859;28;20444;-74
2022/08/27 19:56:49;;;;;;;6.93;3.83;;;;;;;;;;10453460;28;20457;-77
2022/08/27 20:01:51;;;;;;;18.73;3.97;;;;;;;;;;10453392;28;20020;-73
2022/08/27 20:06:52;;;;;;;15.35;3.85;;;;;;;;;;10453354;28;20541;-73
2022/08/27 20:11:53;;;;;;;13.10;3.78;;;;;;;;;;10452918;28;20017;-76
2022/08/27 20:16:53;;;;;;;13.05;5.28;;;;;;;;;;10454270;28;20391;-73
2022/08/27 20:21:54;;;;;;;7.40;3.72;;;;;;;;;;10452729;28;20027;-73
2022/08/27 20:26:55;;;;;;;17.57;4.00;;;;;;;;;;10453810;28;20025;-74
2022/08/27 20:31:59;;;;;;;15.07;4.55;;;;;;;;;;10453393;28;20064;-73
2022/08/27 20:37:01;;;;;;;12.80;4.60;;;;;;;;;;10453188;28;20407;-73
2022/08/27 20:42:01;;;;;;;9.32;3.83;;;;;;;;;;10452223;28;20137;-77
2022/08/27 20:47:02;;;;;;;12.77;6.30;;;;;;;;;;10452675;28;20124;-75
2022/08/27 20:52:02;;;;;;;13.60;4.85;;;;;;;;;;10451485;28;20025;-74
2022/08/27 20:57:03;;;;;;;17.65;4.00;;;;;;;;;;10451153;28;20032;-73
2022/08/27 21:02:04;;;;;;;10.20;3.80;;;;;;;;;;10452566;28;20025;-73
2022/08/27 21:07:05;;;;;;;10.82;3.75;;;;;;;;;;10451337;28;20029;-74
2022/08/27 21:12:05;;;;;;;14.97;5.20;;;;;;;;;;10451376;28;20033;-77
2022/08/27 21:17:06;;;;;;;16.87;5.13;;;;;;;;;;10450385;28;20094;-74
2022/08/27 21:22:06;;;;;;;13.15;4.65;;;;;;;;;;10450502;28;20040;-74
2022/08/27 21:27:06;;;;;;;16.80;4.72;;;;;;;;;;10449871;28;20025;-73
2022/08/27 21:32:08;;;;;;;10.30;4.45;;;;;;;;;;10450063;28;20087;-72
2022/08/27 21:37:10;;;;;;;11.13;4.22;;;;;;;;;;10464934;28;20025;-72
2022/08/27 21:42:11;;;;;;;14.40;4.25;;;;;;;;;;10449243;28;20028;-76
2022/08/27 21:47:11;;;;;;;22.95;4.15;;;;;;;;;;10449939;28;20017;-76
2022/08/27 21:52:11;;;;;;;10.33;4.97;;;;;;;;;;10450735;28;20441;-80
2022/08/27 21:57:14;;;;;;;9.30;4.40;;;;;;;;;;10448906;28;20029;-76
2022/08/27 22:02:15;;;;;;;9.02;4.07;;;;;;;;;;10449207;28;20021;-73
2022/08/27 22:07:16;;;;;;;14.25;4.40;;;;;;;;;;10449571;28;20203;-73
2022/08/27 22:12:16;;;;;;;12.68;4.88;;;;;;;;;;10448413;28;20036;-74
2022/08/27 22:17:16;;;;;;;7.70;4.20;;;;;;;;;;10448684;28;20193;-78
2022/08/27 22:22:17;;;;;;;11.23;5.15;;;;;;;;;;10448454;28;20021;-77
2022/08/27 22:27:18;;;;;;;14.45;4.80;;;;;;;;;;10447958;28;20078;-77
2022/08/27 22:32:18;;;;;;;16.50;4.65;;;;;;;;;;10447981;28;20047;-78
2022/08/27 22:37:18;;;;;;;16.15;4.90;;;;;;;;;;10447433;28;20407;-76
2022/08/27 22:42:19;;;;;;;19.23;5.80;;;;;;;;;;10447476;28;20516;-77
2022/08/27 22:47:19;;;;;;;14.20;5.07;;;;;;;;;;10447502;28;20342;-75
2022/08/27 22:52:19;;;;;;;10.87;4.70;;;;;;;;;;10447319;28;20028;-77
2022/08/27 22:57:20;;;;;;;12.30;4.55;;;;;;;;;;10454292;28;20082;-76
2022/08/27 23:02:20;;;;;;;12.70;4.93;;;;;;;;;;10461867;28;20501;-76
2022/08/27 23:07:21;;;;;;;10.10;5.45;;;;;;;;;;10461020;28;20438;-77
2022/08/27 23:12:21;;;;;;;11.63;4.72;;;;;;;;;;10462347;28;20488;-73
2022/08/27 23:17:22;;;;;;;8.43;5.05;;;;;;;;;;10460217;28;20044;-74
2022/08/27 23:22:22;;;;;;;22.58;6.97;;;;;;;;;;10460786;28;20528;-75
2022/08/27 23:27:29;;;;;;;10.15;5.40;;;;;;;;;;10460448;28;20028;-73
2022/08/27 23:32:30;;;;;;;13.50;5.28;;;;;;;;;;10460784;28;20143;-76
2022/08/27 23:37:30;;;;;;;14.15;5.45;;;;;;;;;;10460849;28;20395;-78
2022/08/27 23:42:31;;;;;;;13.40;5.70;;;;;;;;;;10460052;28;20108;-76
2022/08/27 23:47:31;;;;;;;25.70;6.32;;;;;;;;;;10460269;28;20048;-73
2022/08/27 23:52:31;;;;;;;16.02;6.63;;;;;;;;;;10460401;28;20566;-76
2022/08/27 23:57:32;;;;;;;14.87;5.60;;;;;;;;;;10459975;28;20029;-76
